Time;durP1;ratioP1;P1;durP2;ratioP2;P2;SDS_P1;SDS_P2;PMS_P1;PMS_P2;Temp;Humidity;BMP_temperature;BMP_pressure;BME280_temperature;BME280_humidity;BME280_pressure;Samples;Min_cycle;Max_cycle;Signal;HPM_P1;HPM_P2
2022/08/15 00:00:21;;;;;;;13.18;7.38;;;;;;;-144.47;48.44;53144.09;5048039;28;20043;-64
2022/08/15 00:02:48;;;;;;;12.77;7.45;;;;;;;-144.47;48.31;53114.31;5072559;28;20034;-67
2022/08/15 00:05:20;;;;;;;16.33;8.15;;;;;;;-144.47;48.51;53124.22;5063229;28;20547;-65
2022/08/15 00:07:46;;;;;;;14.50;8.00;;;;;;;-144.47;48.62;53136.16;5062770;28;20402;-65
2022/08/15 00:10:12;;;;;;;14.52;7.82;;;;;;;-144.47;48.54;53191.78;5063671;28;20021;-69
2022/08/15 00:12:40;;;;;;;13.85;8.52;;;;;;;-144.47;48.60;53126.22;5045200;28;20856;-67
2022/08/15 00:15:11;;;;;;;12.65;7.43;;;;;;;-144.47;48.57;53136.16;5065155;28;20040;-65
2022/08/15 00:17:38;;;;;;;14.80;7.45;;;;;;;-144.47;48.77;53114.31;5073399;28;20115;-67
2022/08/15 00:20:04;;;;;;;11.35;7.13;;;;;;;-144.47;48.87;53154.03;5076586;28;20485;-67
2022/08/15 00:22:30;;;;;;;11.20;7.70;;;;;;;-144.47;48.83;53193.75;5072653;28;20070;-64
2022/08/15 00:24:55;;;;;;;10.88;7.55;;;;;;;-144.47;48.92;53108.34;5081480;22;20127;-69
2022/08/15 00:27:24;;;;;;;13.73;8.00;;;;;;;-144.47;48.92;53185.81;5034368;28;20039;-72
2022/08/15 00:29:51;;;;;;;10.75;7.18;;;;;;;-144.47;48.91;53165.94;5062095;28;20083;-67
2022/08/15 00:32:19;;;;;;;12.80;7.72;;;;;;;-144.47;49.21;53146.09;5033171;28;20542;-67
2022/08/15 00:34:45;;;;;;;;;;;;;;;-144.47;49.13;53148.06;5063337;28;20032;-72
2022/08/15 00:37:10;;;;;;;14.77;7.15;;;;;;;-144.47;49.38;53175.88;5037913;28;19998;-70
2022/08/15 00:39:36;;;;;;;12.65;7.55;;;;;;;-144.47;49.56;53116.28;5063451;28;20024;-70
2022/08/15 00:42:04;;;;;;;16.35;8.35;;;;;;;-144.47;49.62;53134.16;5032367;28;20033;-73
2022/08/15 00:44:44;;;;;;;21.20;7.95;;;;;;;-144.47;49.59;53126.22;5037153;28;20024;-68
2022/08/15 00:47:15;;;;;;;10.95;7.63;;;;;;;-144.47;49.71;53152.03;5047767;28;20042;-71
2022/08/15 00:49:43;;;;;;;15.98;8.52;;;;;;;-144.47;49.91;53148.06;5074407;28;20146;-71
2022/08/15 00:52:24;;;;;;;12.55;7.75;;;;;;;-144.47;50.08;53163.97;5068988;28;20044;-75
2022/08/15 00:55:00;;;;;;;13.70;7.85;;;;;;;-144.47;50.11;53158.00;5067730;28;20020;-71
2022/08/15 00:57:31;;;;;;;17.42;8.80;;;;;;;-144.47;50.30;53156.00;5065420;28;20056;-69
2022/08/15 01:00:00;;;;;;;11.82;7.63;;;;;;;-144.47;50.38;53150.06;5050333;28;20085;-69
2022/08/15 01:02:30;;;;;;;17.88;8.35;;;;;;;-144.47;50.39;53150.06;5079084;28;20017;-72
2022/08/15 01:04:56;;;;;;;12.57;8.32;;;;;;;-144.47;50.58;53126.22;5058997;28;20372;-71
2022/08/15 01:07:23;;;;;;;13.13;7.90;;;;;;;-144.47;50.67;53161.97;5068715;28;20497;-73
2022/08/15 01:09:50;;;;;;;15.88;8.32;;;;;;;-144.47;50.89;53171.91;5068873;28;20035;-69
2022/08/15 01:12:19;;;;;;;14.43;8.52;;;;;;;-144.47;51.01;53183.81;5069062;28;20028;-70
2022/08/15 01:14:57;;;;;;;17.80;8.77;;;;;;;-144.47;51.20;53154.03;5060799;28;20020;-71
2022/08/15 01:17:25;;;;;;;;;;;;;;;-144.47;51.39;53152.03;5075224;28;20029;-70
2022/08/15 01:19:56;;;;;;;15.00;8.52;;;;;;;-144.47;51.37;53156.00;5081567;28;19912;-70
2022/08/15 01:22:47;;;;;;;19.33;9.23;;;;;;;-144.47;51.48;53183.81;5068633;28;20020;-70
2022/08/15 01:25:13;;;;;;;19.85;9.40;;;;;;;-144.47;51.64;53150.06;5088726;28;20026;-72
2022/08/15 01:27:51;;;;;;;15.77;8.30;;;;;;;-144.47;51.83;53189.78;5070854;28;20012;-71
2022/08/15 01:30:19;;;;;;;17.75;8.75;;;;;;;-144.47;51.77;53148.06;5050577;28;20020;-70
2022/08/15 01:32:46;;;;;;;20.60;9.05;;;;;;;-144.47;51.83;53148.06;5072987;28;20114;-72
2022/08/15 01:35:11;;;;;;;14.63;8.70;;;;;;;-144.47;51.95;53122.25;5068611;28;20027;-68
2022/08/15 01:37:39;;;;;;;12.75;8.48;;;;;;;-144.47;51.97;53161.97;5068089;28;20012;-67
2022/08/15 01:40:15;;;;;;;17.95;8.30;;;;;;;-144.47;52.07;53181.84;5081503;28;20099;-71
2022/08/15 01:42:47;;;;;;;16.50;8.55;;;;;;;-144.47;52.21;53152.03;5055042;28;20393;-70
2022/08/15 01:45:17;;;;;;;14.30;8.80;;;;;;;-144.47;52.39;53108.34;5082109;28;20027;-69
2022/08/15 01:47:57;;;;;;;12.18;8.02;;;;;;;-144.47;52.48;53167.94;5068765;28;20039;-72
2022/08/15 01:50:28;;;;;;;13.57;7.97;;;;;;;-144.47;52.67;53152.03;5072507;28;20050;-71
2022/08/15 01:52:59;;;;;;;15.75;8.68;;;;;;;-144.47;52.93;53177.88;5077727;28;20024;-71
2022/08/15 01:55:36;;;;;;;20.50;9.10;;;;;;;-144.47;52.88;53165.94;5068336;28;20096;-69
2022/08/15 01:58:04;;;;;;;13.73;9.32;;;;;;;-144.47;52.94;53144.09;5067635;28;20131;-72
2022/08/15 02:00:30;;;;;;;13.45;8.98;;;;;;;-144.47;53.01;53152.03;5068412;28;20025;-70
2022/08/15 02:02:55;;;;;;;16.05;8.63;;;;;;;-144.47;53.18;53173.88;5068174;28;20021;-71
2022/08/15 02:05:20;;;;;;;16.05;8.57;;;;;;;-144.47;53.34;53189.78;5050328;28;20473;-70
2022/08/15 02:07:46;;;;;;;17.15;8.63;;;;;;;-144.47;53.53;53183.81;5049819;28;20048;-71
2022/08/15 02:10:12;;;;;;;13.45;8.43;;;;;;;-144.47;53.59;53213.63;5075225;28;20473;-71
2022/08/15 02:12:40;;;;;;;20.38;8.32;;;;;;;-144.47;53.68;53189.78;5078702;28;20498;-70
2022/08/15 02:15:12;;;;;;;;;;;;;;;-144.47;53.63;53173.88;5061037;28;20032;-73
2022/08/15 02:17:38;;;;;;;11.77;7.78;;;;;;;-144.47;53.78;53169.91;5071708;28;19912;-71
2022/08/15 02:20:05;;;;;;;15.77;8.57;;;;;;;-144.47;53.91;53163.97;5072146;28;20076;-69
2022/08/15 02:22:30;;;;;;;13.55;8.57;;;;;;;-144.47;53.98;53169.91;5054096;28;20020;-70
2022/08/15 02:24:58;;;;;;;15.82;8.80;;;;;;;-144.47;54.10;53195.75;5053950;28;20032;-69
2022/08/15 02:27:25;;;;;;;14.57;8.33;;;;;;;-144.47;54.16;53177.88;5053627;28;20016;-71
2022/08/15 02:29:51;;;;;;;14.48;8.35;;;;;;;-144.47;54.19;53167.94;5034143;28;20250;-70
2022/08/15 02:32:17;;;;;;;11.77;8.00;;;;;;;-144.47;54.26;53169.91;5067740;28;20395;-69
2022/08/15 02:34:44;;;;;;;12.07;8.13;;;;;;;-144.47;54.38;53152.03;5081896;28;20027;-68
2022/08/15 02:37:11;;;;;;;28.00;8.57;;;;;;;-144.47;54.23;53165.94;5060533;28;20046;-70
2022/08/15 02:39:39;;;;;;;13.55;8.63;;;;;;;-144.47;54.24;53189.78;5065176;28;20020;-70
2022/08/15 02:42:05;;;;;;;12.43;7.73;;;;;;;-144.47;54.23;53146.09;5086355;28;20051;-68
2022/08/15 02:44:31;;;;;;;14.18;8.75;;;;;;;-144.47;54.15;53142.09;5082593;28;20028;-69
2022/08/15 02:46:57;;;;;;;13.80;8.60;;;;;;;-144.47;54.25;53158.00;5080029;28;21488;-68
2022/08/15 02:49:24;;;;;;;17.92;8.70;;;;;;;-144.47;54.15;53197.72;5082993;28;20031;-71
2022/08/15 02:51:50;;;;;;;14.23;8.70;;;;;;;-144.47;54.49;53154.03;5086765;28;20032;-73
2022/08/15 02:54:19;;;;;;;18.30;8.77;;;;;;;-144.47;54.47;53175.88;5055108;28;20024;-73
2022/08/15 02:56:45;;;;;;;13.50;8.20;;;;;;;-144.47;54.47;53156.00;5071680;28;20025;-72
2022/08/15 02:59:11;;;;;;;15.88;8.18;;;;;;;-144.47;54.47;53154.03;5070615;28;20044;-67
2022/08/15 03:01:40;;;;;;;13.25;8.40;;;;;;;-144.47;54.73;53165.94;5073655;28;20021;-69
2022/08/15 03:04:07;;;;;;;;;;;;;;;-144.47;54.60;53177.88;5073959;28;20020;-67
2022/08/15 03:06:33;;;;;;;17.67;9.02;;;;;;;-144.47;54.73;53189.78;5072702;28;19916;-70
2022/08/15 03:09:00;;;;;;;15.13;8.52;;;;;;;-144.47;54.69;53179.84;5071940;28;20373;-73
2022/08/15 03:11:29;;;;;;;15.85;9.05;;;;;;;-144.47;54.73;53169.91;5054825;28;20024;-69
2022/08/15 03:13:55;;;;;;;17.80;8.63;;;;;;;-144.47;54.63;53146.09;5059134;28;20529;-70
2022/08/15 03:16:21;;;;;;;20.75;8.38;;;;;;;-144.47;54.53;53183.81;5053932;28;20024;-69
2022/08/15 03:18:46;;;;;;;15.63;8.55;;;;;;;-144.47;54.49;53169.91;5075521;28;20036;-68
2022/08/15 03:21:19;;;;;;;11.90;8.40;;;;;;;-144.47;54.66;53161.97;5075630;28;20482;-70
2022/08/15 03:23:49;;;;;;;12.73;8.70;;;;;;;-144.47;54.76;53181.84;5078664;28;20354;-72
2022/08/15 03:26:17;;;;;;;16.52;8.65;;;;;;;-144.47;54.89;53173.88;5070469;28;20354;-71
2022/08/15 03:28:43;;;;;;;15.48;8.82;;;;;;;-144.47;54.85;53193.75;5070725;28;20032;-72
2022/08/15 03:31:09;;;;;;;18.20;9.15;;;;;;;-144.47;54.96;53150.06;5077273;28;20381;-71
2022/08/15 03:33:36;;;;;;;14.05;8.65;;;;;;;-144.47;54.97;53161.97;5059277;28;20440;-67
2022/08/15 03:36:03;;;;;;;14.50;8.70;;;;;;;-144.47;54.92;53163.97;5070622;28;20115;-71
2022/08/15 03:38:28;;;;;;;16.05;8.85;;;;;;;-144.47;54.80;53207.66;5069919;28;20028;-69
2022/08/15 03:40:54;;;;;;;17.60;9.07;;;;;;;-144.47;54.95;53177.88;5084304;28;20026;-71
2022/08/15 03:43:22;;;;;;;14.65;7.90;;;;;;;-144.47;54.81;53171.91;5049574;28;20453;-71
2022/08/15 03:45:51;;;;;;;13.73;8.05;;;;;;;-144.47;54.70;53177.88;5057286;28;20095;-68
2022/08/15 03:48:17;;;;;;;;;;;;;;;-144.47;54.73;53187.78;5052833;28;20024;-70
2022/08/15 03:50:43;;;;;;;12.75;7.80;;;;;;;-144.47;54.58;53171.91;5083537;28;19916;-68
2022/08/15 03:53:09;;;;;;;17.33;8.43;;;;;;;-144.47;54.47;53185.81;5069425;28;20022;-71
2022/08/15 03:55:38;;;;;;;13.07;7.90;;;;;;;-144.47;54.58;53177.88;5051889;28;20486;-70
2022/08/15 03:58:04;;;;;;;13.35;7.72;;;;;;;-144.47;54.45;53193.75;5083360;28;20016;-72
2022/08/15 04:00:43;;;;;;;26.45;9.88;;;;;;;-144.47;54.52;53187.78;5070452;28;20016;-69
2022/08/15 04:03:15;;;;;;;13.90;8.90;;;;;;;-144.47;54.23;53217.59;5069702;28;20023;-72
2022/08/15 04:05:42;;;;;;;14.13;8.90;;;;;;;-144.47;54.03;53175.88;5070044;28;20111;-69
2022/08/15 04:08:09;;;;;;;24.05;9.35;;;;;;;-144.47;53.94;53213.63;5069825;28;20074;-70
2022/08/15 04:10:36;;;;;;;14.68;8.85;;;;;;;-144.47;53.73;53209.66;5069474;28;20466;-71
2022/08/15 04:13:03;;;;;;;16.48;8.13;;;;;;;-144.47;53.43;53161.97;5065425;28;20432;-68
2022/08/15 04:15:29;;;;;;;17.95;8.43;;;;;;;-144.47;53.51;53126.22;5060347;28;20511;-69
2022/08/15 04:17:55;;;;;;;12.48;8.40;;;;;;;-144.47;53.44;53183.81;5073568;28;20098;-72
2022/08/15 04:20:21;;;;;;;12.25;8.38;;;;;;;-144.47;53.30;53183.81;5060130;28;20524;-70
2022/08/15 04:22:49;;;;;;;14.63;8.77;;;;;;;-144.47;53.30;53156.00;5069213;28;20136;-69
2022/08/15 04:25:27;;;;;;;17.42;8.20;;;;;;;-144.47;53.38;53179.84;5069542;28;20032;-70
2022/08/15 04:27:56;;;;;;;15.68;8.57;;;;;;;-144.47;53.48;53193.75;5069292;28;20024;-70
2022/08/15 04:30:24;;;;;;;17.88;8.68;;;;;;;-144.47;53.65;53177.88;5069244;28;20024;-70
2022/08/15 04:32:56;;;;;;;14.50;8.38;;;;;;;-144.47;53.79;53193.75;5055882;28;20013;-70
2022/08/15 04:35:22;;;;;;;17.80;9.43;;;;;;;-144.47;53.87;53158.00;5069392;28;20024;-72
2022/08/15 04:37:48;;;;;;;16.40;8.68;;;;;;;-144.47;54.33;53171.91;5068825;28;20086;-70
2022/08/15 04:40:14;;;;;;;13.35;8.65;;;;;;;-144.47;54.30;53181.84;5050964;28;20437;-71
2022/08/15 04:42:58;;;;;;;17.65;9.88;;;;;;;-144.47;54.80;53187.78;5068647;28;20462;-71
2022/08/15 04:45:30;;;;;;;14.43;8.65;;;;;;;-144.47;54.82;53177.88;5069263;28;20106;-70
2022/08/15 04:47:56;;;;;;;16.85;8.93;;;;;;;-144.47;54.63;53173.88;5068090;28;20009;-71
2022/08/15 04:50:22;;;;;;;21.85;8.90;;;;;;;-144.47;54.75;53189.78;5068741;28;20131;-71
2022/08/15 04:52:53;;;;;;;15.93;8.35;;;;;;;-144.47;54.83;53179.84;5069213;28;20031;-69
2022/08/15 04:55:20;;;;;;;15.43;9.07;;;;;;;-144.47;54.84;53160.00;5051269;28;20024;-71
2022/08/15 04:57:46;;;;;;;16.80;8.70;;;;;;;-144.47;54.81;53203.69;5068864;28;20031;-71
2022/08/15 05:00:15;;;;;;;21.38;9.73;;;;;;;-144.47;54.75;53175.88;5069224;28;20230;-70
2022/08/15 05:02:41;;;;;;;14.77;7.82;;;;;;;-144.47;54.48;53150.06;5069379;28;20042;-72
2022/08/15 05:05:09;;;;;;;12.52;8.20;;;;;;;-144.47;54.48;53171.91;5050399;28;20470;-72
2022/08/15 05:07:35;;;;;;;18.92;8.82;;;;;;;-144.47;54.63;53191.78;5081494;28;20039;-69
2022/08/15 05:10:03;;;;;;;21.02;8.77;;;;;;;-144.47;54.43;53177.88;5069062;28;20608;-71
2022/08/15 05:12:28;;;;;;;14.45;8.63;;;;;;;-144.47;54.19;53207.66;5068147;28;20052;-72
2022/08/15 05:14:56;;;;;;;14.40;8.00;;;;;;;-144.47;54.21;53167.94;5067926;28;20055;-73
2022/08/15 05:17:21;;;;;;;15.27;8.67;;;;;;;-144.47;54.04;53169.91;5068768;28;20020;-71
2022/08/15 05:19:47;;;;;;;13.65;9.20;;;;;;;-144.47;53.92;53205.66;5068843;28;20023;-74
2022/08/15 05:22:12;;;;;;;16.60;8.43;;;;;;;-144.47;53.96;53167.94;5068288;28;20016;-73
2022/08/15 05:24:38;;;;;;;12.88;9.27;;;;;;;-144.47;53.81;53173.88;5067191;28;20020;-72
2022/08/15 05:27:05;;;;;;;13.80;8.52;;;;;;;-144.47;53.62;53193.75;5068852;28;20092;-71
2022/08/15 05:29:31;;;;;;;17.02;8.10;;;;;;;-144.47;53.21;53165.94;5069154;28;20159;-75
2022/08/15 05:31:58;;;;;;;14.90;9.07;;;;;;;-144.47;53.01;53144.09;5049763;28;20032;-69
2022/08/15 05:34:23;;;;;;;13.73;8.85;;;;;;;-144.47;53.01;53138.13;5068010;28;20028;-71
2022/08/15 05:36:49;;;;;;;13.98;8.90;;;;;;;-144.47;52.66;53187.78;5068397;28;20025;-71
2022/08/15 05:39:23;;;;;;;14.07;8.20;;;;;;;-144.47;52.45;53160.00;5068820;28;20024;-71
2022/08/15 05:42:35;;;;;;;15.35;8.60;;;;;;;-144.47;51.95;53175.88;5068009;28;20021;-70
2022/08/15 05:45:05;;;;;;;14.65;7.55;;;;;;;-144.47;51.67;53160.00;4980645;28;20137;-69
2022/08/15 05:47:48;;;;;;;16.15;8.20;;;;;;;-144.47;51.69;53169.91;5039401;28;20550;-70
2022/08/15 05:50:17;;;;;;;14.85;8.52;;;;;;;-144.47;51.32;53185.81;5053333;28;20139;-70
2022/08/15 05:53:16;;;;;;;17.70;9.05;;;;;;;-144.47;51.08;53120.25;5061146;28;20020;-69
2022/08/15 05:56:08;;;;;;;22.42;8.65;;;;;;;-144.47;50.97;53142.09;5051228;28;20021;-70
2022/08/15 05:58:49;;;;;;;21.67;8.10;;;;;;;-144.47;50.55;53150.06;5055655;28;20112;-70
2022/08/15 06:01:23;;;;;;;26.55;8.55;;;;;;;-144.47;50.35;53108.34;5055268;28;20481;-69
2022/08/15 06:04:15;;;;;;;16.58;8.02;;;;;;;-144.47;49.90;53140.13;5059548;28;20024;-71
2022/08/15 06:06:46;;;;;;;15.55;7.68;;;;;;;-144.47;49.76;53102.38;5057041;28;20090;-70
2022/08/15 06:09:26;;;;;;;14.20;7.78;;;;;;;-144.47;49.78;53120.25;5068384;28;20028;-69
2022/08/15 06:11:55;;;;;;;14.93;7.68;;;;;;;-144.47;49.56;53128.22;5068708;28;20472;-71
2022/08/15 06:14:23;;;;;;;16.65;7.93;;;;;;;-144.47;49.38;53169.91;5051054;28;20013;-71
2022/08/15 06:16:52;;;;;;;;;;;;;;;-144.47;49.28;53116.28;5068489;28;20048;-69
2022/08/15 06:19:34;;;;;;;19.73;8.63;;;;;;;-144.47;49.18;53142.09;5080840;28;19912;-68
2022/08/15 06:22:16;;;;;;;29.50;9.27;;;;;;;-144.47;48.93;53144.09;5081349;28;20024;-68
2022/08/15 06:27:20;;;;;;;20.15;8.80;;;;;;;-144.47;48.57;53120.25;5046128;28;20061;-66
2022/08/15 06:30:09;;;;;;;26.77;8.73;;;;;;;-144.47;48.53;53122.25;5031821;28;20051;-67
2022/08/15 06:33:19;;;;;;;14.13;6.97;;;;;;;-144.47;48.01;53098.41;5047411;28;20021;-68
2022/08/15 06:36:23;;;;;;;14.77;8.07;;;;;;;-144.47;48.04;53146.09;5045447;28;20479;-66
2022/08/15 06:39:01;;;;;;;17.52;7.55;;;;;;;-144.47;47.99;53086.50;4959226;28;20391;-67
2022/08/15 06:41:58;;;;;;;18.42;9.73;;;;;;;-144.47;47.85;53142.09;5024600;28;20148;-64
2022/08/15 06:44:24;;;;;;;20.67;8.35;;;;;;;-144.47;47.78;53173.88;5046792;28;20520;-66
2022/08/15 06:46:51;;;;;;;20.80;8.20;;;;;;;-144.47;47.99;53116.28;5046446;28;20116;-67
2022/08/15 06:49:19;;;;;;;14.70;8.23;;;;;;;-144.47;47.74;53140.13;5027140;28;20395;-65
2022/08/15 06:51:47;;;;;;;18.98;8.57;;;;;;;-144.47;47.61;53128.22;5030437;28;20017;-67
2022/08/15 06:54:32;;;;;;;18.25;8.02;;;;;;;-144.47;47.71;53161.97;5047386;28;20535;-67
2022/08/15 06:57:18;;;;;;;16.17;7.43;;;;;;;-144.47;47.42;53156.00;5048702;28;20433;-66
2022/08/15 06:59:58;;;;;;;18.23;7.78;;;;;;;-144.47;47.64;53116.28;5031502;28;20021;-66
2022/08/15 07:02:50;;;;;;;11.65;7.82;;;;;;;-144.47;47.22;53142.09;5017364;28;20116;-67
2022/08/15 07:05:27;;;;;;;15.57;7.40;;;;;;;-144.47;46.87;53098.41;5047995;28;20048;-68
2022/08/15 07:07:56;;;;;;;18.45;8.20;;;;;;;-144.47;46.65;53122.25;5050698;28;20045;-65
2022/08/15 07:10:31;;;;;;;14.43;7.22;;;;;;;-144.47;46.52;53092.44;5051026;28;20013;-66
2022/08/15 07:13:05;;;;;;;14.63;7.95;;;;;;;-144.47;46.40;53142.09;5050998;28;20039;-67
2022/08/15 07:16:05;;;;;;;14.45;7.20;;;;;;;-144.47;46.04;53165.94;5057259;28;20024;-65
2022/08/15 07:18:37;;;;;;;15.77;7.47;;;;;;;-144.47;45.96;53122.25;4984586;28;20061;-66
2022/08/15 07:21:05;;;;;;;16.55;7.13;;;;;;;-144.47;45.38;53110.31;5039722;28;20544;-66
2022/08/15 07:23:31;;;;;;;16.67;7.77;;;;;;;-144.47;45.33;53094.44;5050342;28;20021;-65
2022/08/15 07:26:05;;;;;;;13.93;7.50;;;;;;;-144.47;45.14;53140.13;5048048;28;20471;-66
2022/08/15 07:28:33;;;;;;;13.18;7.40;;;;;;;-144.47;45.16;53102.38;5032087;28;20031;-66
2022/08/15 07:31:08;;;;;;;18.13;7.55;;;;;;;-144.47;45.13;53130.19;5050387;28;20033;-66
2022/08/15 07:33:33;;;;;;;17.02;8.05;;;;;;;-144.47;45.04;53090.47;5051060;28;20119;-67
2022/08/15 07:36:07;;;;;;;11.25;7.38;;;;;;;-144.47;44.96;53106.34;5050889;28;20424;-66
2022/08/15 07:38:33;;;;;;;25.20;8.05;;;;;;;-144.47;45.17;53124.22;5051236;28;20028;-66
2022/08/15 07:41:12;;;;;;;18.80;7.45;;;;;;;-144.47;45.10;53102.38;5051408;28;20025;-67
2022/08/15 07:43:38;;;;;;;18.70;8.02;;;;;;;-144.47;45.34;53098.41;5051058;28;20494;-66
2022/08/15 07:46:15;;;;;;;17.98;7.55;;;;;;;-144.47;45.25;53120.25;5033515;28;20029;-66
2022/08/15 07:48:41;;;;;;;18.08;6.80;;;;;;;-144.47;45.23;53092.44;5051088;28;20052;-66
2022/08/15 07:51:23;;;;;;;19.35;8.13;;;;;;;-144.47;44.92;53118.28;5051287;28;20027;-66
2022/08/15 07:53:59;;;;;;;13.23;7.47;;;;;;;-144.47;44.75;53086.50;5051513;28;20064;-65
2022/08/15 07:56:27;;;;;;;16.63;7.30;;;;;;;-144.47;44.46;53118.28;5051450;28;20024;-66
2022/08/15 07:59:14;;;;;;;22.23;8.38;;;;;;;-144.47;43.94;53096.41;5052386;28;20025;-63
2022/08/15 08:01:40;;;;;;;14.60;7.95;;;;;;;-144.47;43.56;53108.34;5028350;28;20391;-68
2022/08/15 08:04:18;;;;;;;18.98;7.03;;;;;;;-144.47;43.38;53076.56;5040414;28;20033;-66
2022/08/15 08:07:04;;;;;;;18.55;7.68;;;;;;;-144.47;42.94;53076.56;5030187;28;20013;-69
2022/08/15 08:10:01;;;;;;;13.63;6.18;;;;;;;-144.47;42.07;53132.19;5047854;28;20032;-69
2022/08/15 08:13:08;;;;;;;13.35;7.07;;;;;;;-144.47;42.22;53084.50;4981053;28;20037;-67
2022/08/15 08:15:48;;;;;;;12.80;7.40;;;;;;;-144.47;41.91;53086.50;5045260;28;20043;-67
2022/08/15 08:18:34;;;;;;;11.70;6.95;;;;;;;-144.47;41.93;53080.53;5041404;28;20467;-68
2022/08/15 08:21:11;;;;;;;17.95;7.43;;;;;;;-144.47;41.92;53090.47;5032810;28;20105;-66
2022/08/15 08:23:49;;;;;;;13.32;7.38;;;;;;;-144.47;41.78;53044.78;5050605;28;20017;-69
2022/08/15 08:26:43;;;;;;;17.83;7.15;;;;;;;-144.47;41.63;53066.63;5032734;28;20090;-65
2022/08/15 08:29:35;;;;;;;13.20;6.75;;;;;;;-144.47;41.74;53066.63;5048827;28;20048;-64
2022/08/15 08:32:40;;;;;;;18.50;7.35;;;;;;;-144.47;41.61;53080.53;5050506;28;20096;-67
2022/08/15 08:35:22;;;;;;;16.10;7.55;;;;;;;-144.47;41.70;53084.50;5043705;28;20386;-66
2022/08/15 08:38:19;;;;;;;15.65;7.05;;;;;;;-144.47;41.77;53058.69;5050437;28;20027;-65
2022/08/15 08:41:34;;;;;;;14.65;7.40;;;;;;;-144.47;41.60;53054.72;5050331;28;20090;-69
2022/08/15 08:44:21;;;;;;;23.30;7.40;;;;;;;-144.47;41.17;53058.69;5050574;28;20028;-65
2022/08/15 08:47:01;;;;;;;14.90;7.60;;;;;;;-144.47;41.05;53024.91;5050316;28;20021;-67
2022/08/15 08:49:57;;;;;;;15.27;7.20;;;;;;;-144.47;40.97;53060.66;5050588;28;20031;-67
2022/08/15 08:52:33;;;;;;;20.90;7.25;;;;;;;-144.47;40.64;53066.63;5039888;28;20024;-64
2022/08/15 08:55:16;;;;;;;20.98;6.85;;;;;;;-144.47;40.61;53062.66;5050589;28;20102;-65
2022/08/15 08:57:49;;;;;;;15.35;6.75;;;;;;;-144.47;39.71;53070.59;5049555;28;20087;-66
2022/08/15 09:00:17;;;;;;;17.60;7.70;;;;;;;-144.47;39.31;53048.75;5037315;28;20017;-67
2022/08/15 09:02:49;;;;;;;12.75;7.20;;;;;;;-144.47;38.68;53072.59;5048796;28;20013;-67
2022/08/15 09:05:36;;;;;;;13.40;6.78;;;;;;;-144.47;38.62;53030.88;5036877;28;20117;-65
2022/08/15 09:08:12;;;;;;;12.25;6.85;;;;;;;-144.47;38.57;53040.81;5050959;28;20074;-69
2022/08/15 09:10:41;;;;;;;20.27;7.40;;;;;;;-144.47;38.35;53062.66;5050102;28;20131;-68
2022/08/15 09:16:00;;;;;;;18.08;6.95;;;;;;;-144.47;37.44;53044.78;5049559;28;20501;-65
2022/08/15 09:18:42;;;;;;;16.70;7.07;;;;;;;-144.47;38.21;53038.81;5049419;28;20395;-65
2022/08/15 09:21:08;;;;;;;17.73;7.32;;;;;;;-144.47;38.26;53022.94;5049657;28;20707;-66
2022/08/15 09:23:38;;;;;;;15.60;7.68;;;;;;;-144.47;37.83;53020.94;5049682;28;20028;-67
2022/08/15 09:26:13;;;;;;;25.45;7.38;;;;;;;-144.47;36.85;53034.84;5031622;28;20513;-67
2022/08/15 09:28:43;;;;;;;14.13;6.68;;;;;;;-144.47;36.04;53011.00;5031883;28;20021;-67
2022/08/15 09:31:23;;;;;;;21.80;6.97;;;;;;;-144.47;36.02;53060.66;5049670;28;20116;-67
2022/08/15 09:34:27;;;;;;;11.45;6.80;;;;;;;-144.47;36.11;53011.00;5057769;28;20086;-66
2022/08/15 09:37:30;;;;;;;16.45;7.60;;;;;;;-144.47;35.62;52991.16;5033799;28;20017;-69
2022/08/15 09:40:04;;;;;;;14.52;6.10;;;;;;;-144.47;34.70;53013.00;5050218;28;20032;-67
2022/08/15 09:43:02;;;;;;;11.55;6.65;;;;;;;-144.47;34.37;52981.22;5036733;28;20262;-66
2022/08/15 09:45:40;;;;;;;13.15;6.85;;;;;;;-144.47;33.74;52989.16;4998335;28;20064;-67
2022/08/15 09:48:33;;;;;;;13.25;6.53;;;;;;;-144.47;33.52;52995.13;5048898;28;20029;-67
2022/08/15 09:51:20;;;;;;;12.85;7.10;;;;;;;-144.47;33.23;52999.09;5040180;28;20066;-65
2022/08/15 09:54:01;;;;;;;12.90;5.97;;;;;;;-144.47;33.65;52987.19;5049050;28;20378;-65
2022/08/15 09:56:30;;;;;;;13.77;6.40;;;;;;;-144.47;33.40;52999.09;5014392;28;20033;-68
2022/08/15 09:59:05;;;;;;;13.15;6.15;;;;;;;-144.47;33.22;52995.13;5048701;28;20095;-65
2022/08/15 10:01:46;;;;;;;16.65;6.35;;;;;;;-144.47;33.14;52987.19;5030856;28;20025;-67
2022/08/15 10:04:17;;;;;;;10.00;5.78;;;;;;;-144.47;33.20;52991.16;5018501;28;20117;-67
2022/08/15 10:07:01;;;;;;;10.68;6.25;;;;;;;-144.47;33.20;52983.22;5035391;28;20017;-68
2022/08/15 10:09:33;;;;;;;17.48;7.03;;;;;;;-144.47;33.28;52999.09;5031486;28;20029;-68
2022/08/15 10:12:22;;;;;;;15.95;6.32;;;;;;;-144.47;33.27;52987.19;5049741;28;20029;-67
2022/08/15 10:14:47;;;;;;;12.23;6.80;;;;;;;-144.47;33.51;52985.19;5049330;28;20483;-64
2022/08/15 10:17:37;;;;;;;13.20;5.88;;;;;;;-144.47;33.49;52971.28;5031184;28;20099;-68
2022/08/15 10:20:15;;;;;;;13.48;6.28;;;;;;;-144.47;33.33;53005.06;5039349;28;20029;-68
2022/08/15 10:22:59;;;;;;;15.57;6.80;;;;;;;-144.47;33.15;53011.00;5031344;28;20117;-65
2022/08/15 10:25:35;;;;;;;16.77;6.72;;;;;;;-144.47;32.87;53024.91;5049003;28;20044;-64
2022/08/15 10:28:13;;;;;;;10.95;6.60;;;;;;;-144.47;32.79;52979.22;5031714;28;20032;-67
2022/08/15 10:31:12;;;;;;;12.30;6.63;;;;;;;-144.47;32.82;52959.38;5050038;28;20032;-66
2022/08/15 10:33:52;;;;;;;15.80;6.53;;;;;;;-144.47;33.12;52999.09;5053723;28;20025;-68
2022/08/15 10:36:30;;;;;;;20.30;6.90;;;;;;;-144.47;33.10;53011.00;5035970;28;20059;-67
2022/08/15 10:39:42;;;;;;;9.20;5.95;;;;;;;-144.47;32.66;52957.38;5035733;28;20025;-67
2022/08/15 10:42:19;;;;;;;21.08;6.63;;;;;;;-144.47;32.63;53007.03;4975146;28;20036;-67
2022/08/15 10:44:56;;;;;;;13.20;5.90;;;;;;;-144.47;32.69;52969.31;5032586;28;20582;-67
2022/08/15 10:47:47;;;;;;;11.80;6.15;;;;;;;-144.47;32.78;53003.06;5052900;28;20624;-66
2022/08/15 10:50:32;;;;;;;11.57;6.30;;;;;;;-144.47;32.88;52983.22;5034710;28;20501;-68
2022/08/15 10:53:01;;;;;;;19.85;6.13;;;;;;;-144.47;32.65;52955.41;5034815;28;20166;-67
2022/08/15 10:55:28;;;;;;;12.20;5.88;;;;;;;-144.47;32.53;53046.75;5052611;28;20063;-66
2022/08/15 10:58:10;;;;;;;10.10;5.37;;;;;;;-144.47;32.40;52983.22;5052491;28;20021;-67
2022/08/15 11:00:38;;;;;;;13.27;6.07;;;;;;;-144.47;32.68;52973.28;5042104;28;20386;-66
2022/08/15 11:03:27;;;;;;;;;;;;;;;-144.47;32.85;52985.19;5031989;28;20458;-66
2022/08/15 11:05:58;;;;;;;12.77;5.85;;;;;;;-144.47;32.55;53030.88;5022181;28;19959;-66
2022/08/15 11:08:24;;;;;;;11.90;6.05;;;;;;;-144.47;32.78;52999.09;4997568;28;20064;-66
2022/08/15 11:10:50;;;;;;;12.80;5.95;;;;;;;-144.47;32.58;53005.06;5046313;28;20032;-66
2022/08/15 11:13:22;;;;;;;13.48;6.50;;;;;;;-144.47;32.25;52985.19;5051889;28;20029;-67
2022/08/15 11:15:58;;;;;;;14.43;6.20;;;;;;;-144.47;31.94;53022.94;5018517;28;20021;-67
2022/08/15 11:18:36;;;;;;;10.63;6.05;;;;;;;-144.47;31.66;53016.97;5034593;28;20371;-66
2022/08/15 11:21:23;;;;;;;12.93;5.88;;;;;;;-144.47;31.27;52983.22;5034336;28;20032;-67
2022/08/15 11:23:56;;;;;;;11.98;6.10;;;;;;;-144.47;31.32;52991.16;5034279;28;20048;-67
2022/08/15 11:26:27;;;;;;;10.02;6.30;;;;;;;-144.47;30.95;52977.25;5033879;28;20516;-67
2022/08/15 11:29:06;;;;;;;10.98;6.50;;;;;;;-144.47;30.79;52993.13;5052079;28;20482;-67
2022/08/15 11:31:31;;;;;;;11.18;5.90;;;;;;;-144.47;30.89;52967.31;5052549;28;20023;-67
2022/08/15 11:33:56;;;;;;;11.43;7.00;;;;;;;-144.47;30.71;52963.34;5040900;28;20017;-66
2022/08/15 11:36:27;;;;;;;8.85;5.65;;;;;;;-144.47;30.40;52983.22;5033874;28;20021;-71
2022/08/15 11:39:00;;;;;;;13.02;6.35;;;;;;;-144.47;29.99;52947.47;5052235;28;20510;-66
2022/08/15 11:41:30;;;;;;;9.75;5.72;;;;;;;-144.47;30.13;52959.38;5034884;28;20036;-67
2022/08/15 11:43:59;;;;;;;21.33;6.80;;;;;;;-144.47;30.04;52959.38;5052131;28;20441;-64
2022/08/15 11:46:26;;;;;;;11.43;6.05;;;;;;;-144.47;29.67;52995.13;5051720;28;20490;-66